createdAt,value
2023-05-22T00:00:10.662Z,37.78
2023-05-22T00:00:40.766Z,37.80
2023-05-22T00:01:40.691Z,37.83
2023-05-22T00:02:10.850Z,37.78
2023-05-22T00:02:40.809Z,37.79
2023-05-22T00:03:10.872Z,37.75
2023-05-22T00:03:40.909Z,37.78
2023-05-22T00:04:10.929Z,37.80
2023-05-22T00:04:41.021Z,37.81
2023-05-22T00:05:11.002Z,37.80
2023-05-22T00:05:41.157Z,37.81
2023-05-22T00:06:11.132Z,37.81
2023-05-22T00:06:41.160Z,37.75
2023-05-22T00:07:11.183Z,37.78
2023-05-22T00:07:41.198Z,37.80
2023-05-22T00:08:11.222Z,37.78
2023-05-22T00:08:41.269Z,37.72
2023-05-22T00:09:11.307Z,37.77
2023-05-22T00:09:41.341Z,37.79
2023-05-22T00:10:11.374Z,37.75
2023-05-22T00:10:41.513Z,37.75
2023-05-22T00:11:11.399Z,37.77
2023-05-22T00:11:41.446Z,37.77
2023-05-22T00:12:11.473Z,37.79
2023-05-22T00:12:41.510Z,37.78
2023-05-22T00:13:11.526Z,37.77
2023-05-22T00:13:41.567Z,37.78
2023-05-22T00:14:11.596Z,37.80
2023-05-22T00:14:41.611Z,37.74
2023-05-22T00:15:11.664Z,37.83
2023-05-22T00:15:41.687Z,37.75
2023-05-22T00:16:11.697Z,37.77
2023-05-22T00:16:41.764Z,37.79
2023-05-22T00:17:11.843Z,37.75
2023-05-22T00:17:41.886Z,37.80
2023-05-22T00:18:11.968Z,37.74
2023-05-22T00:18:41.993Z,37.74
2023-05-22T00:19:12.101Z,37.77
2023-05-22T00:20:12.073Z,37.78
2023-05-22T00:20:42.063Z,37.79
2023-05-22T00:21:12.170Z,37.71
2023-05-22T00:21:42.287Z,37.81
2023-05-22T00:22:12.398Z,37.77
2023-05-22T00:22:42.536Z,37.77
2023-05-22T00:23:15.266Z,37.75
2023-05-22T00:23:42.541Z,37.74
2023-05-22T00:24:12.532Z,37.74
2023-05-22T00:24:42.643Z,37.70
2023-05-22T00:25:12.759Z,37.68
2023-05-22T00:25:42.899Z,37.75
2023-05-22T00:26:12.872Z,37.74
2023-05-22T00:26:42.993Z,37.72
2023-05-22T00:27:13.102Z,37.75
2023-05-22T00:27:43.242Z,37.72
2023-05-22T00:28:13.233Z,37.73
2023-05-22T00:28:43.265Z,37.74
2023-05-22T00:29:13.284Z,37.73
2023-05-22T00:29:43.310Z,37.68
2023-05-22T00:30:13.329Z,37.74
2023-05-22T00:30:43.361Z,37.71
2023-05-22T00:31:13.416Z,37.74
2023-05-22T00:31:43.413Z,37.71
2023-05-22T00:32:13.440Z,37.69
2023-05-22T00:32:43.495Z,37.74
2023-05-22T00:33:13.558Z,37.68
2023-05-22T00:33:43.618Z,37.69
2023-05-22T00:34:13.661Z,37.71
2023-05-22T00:34:43.786Z,37.72
2023-05-22T00:35:13.698Z,37.70
2023-05-22T00:35:43.721Z,37.72
2023-05-22T00:36:13.752Z,37.65
2023-05-22T00:36:43.786Z,37.66
2023-05-22T00:37:13.814Z,37.65
2023-05-22T00:37:43.839Z,37.69
2023-05-22T00:38:13.870Z,37.65
2023-05-22T00:38:43.884Z,37.69
2023-05-22T00:39:13.911Z,37.66
2023-05-22T00:39:43.937Z,37.71
2023-05-22T00:40:13.988Z,37.65
2023-05-22T00:40:44.004Z,37.70
2023-05-22T00:41:14.032Z,37.69
2023-05-22T00:41:44.095Z,37.72
2023-05-22T00:42:14.141Z,37.68
2023-05-22T00:42:44.150Z,37.68
2023-05-22T00:43:14.170Z,37.66
2023-05-22T00:43:44.207Z,37.68
2023-05-22T00:44:14.225Z,37.70
2023-05-22T00:44:44.248Z,37.68
2023-05-22T00:45:14.295Z,37.68
2023-05-22T00:45:44.328Z,37.73
2023-05-22T00:46:14.491Z,37.69
2023-05-22T00:46:44.523Z,37.67
2023-05-22T00:47:14.426Z,37.68
2023-05-22T00:47:44.513Z,37.69
2023-05-22T00:48:14.525Z,37.70
2023-05-22T00:48:44.552Z,37.66
2023-05-22T00:49:14.573Z,37.69
2023-05-22T00:49:44.592Z,37.73
2023-05-22T00:50:14.619Z,37.68
2023-05-22T00:50:44.664Z,37.70
2023-05-22T00:51:14.685Z,37.69
2023-05-22T00:51:44.708Z,37.69
2023-05-22T00:52:14.743Z,37.70
2023-05-22T00:52:44.750Z,37.70
2023-05-22T00:53:14.775Z,37.72
2023-05-22T00:53:44.792Z,37.67
2023-05-22T00:54:14.814Z,37.67
2023-05-22T00:54:44.837Z,37.66
2023-05-22T00:55:15.180Z,37.69
2023-05-22T00:55:44.948Z,37.66
2023-05-22T00:56:44.983Z,37.72
2023-05-22T00:57:15.011Z,37.70
2023-05-22T00:57:45.054Z,37.72
2023-05-22T00:58:15.072Z,37.75
2023-05-22T00:58:45.100Z,37.72
2023-05-22T00:59:15.123Z,37.72
2023-05-22T00:59:45.148Z,37.69
2023-05-22T01:00:15.201Z,37.73
2023-05-22T01:00:45.210Z,37.65
2023-05-22T01:01:15.254Z,37.70
2023-05-22T01:01:45.330Z,37.68
2023-05-22T01:02:15.476Z,37.72
2023-05-22T01:02:45.526Z,37.69
2023-05-22T01:03:15.531Z,37.69
2023-05-22T01:03:45.755Z,37.67
2023-05-22T01:04:15.714Z,37.72
2023-05-22T01:04:45.523Z,37.71
2023-05-22T01:05:15.548Z,37.66
2023-05-22T01:05:45.569Z,37.68
2023-05-22T01:06:15.592Z,37.69
2023-05-22T01:06:45.618Z,37.69
2023-05-22T01:07:15.645Z,37.69
2023-05-22T01:07:45.672Z,37.70
2023-05-22T01:08:15.692Z,37.69
2023-05-22T01:08:45.719Z,37.70
2023-05-22T01:09:15.756Z,37.69
2023-05-22T01:09:45.784Z,37.75
2023-05-22T01:10:15.811Z,37.72
2023-05-22T01:10:45.831Z,37.73
2023-05-22T01:11:15.856Z,37.75
2023-05-22T01:11:45.880Z,37.75
2023-05-22T01:12:15.911Z,37.72
2023-05-22T01:12:45.941Z,37.69
2023-05-22T01:13:15.972Z,37.75
2023-05-22T01:13:46.017Z,37.70
2023-05-22T01:14:16.055Z,37.67
2023-05-22T01:14:46.088Z,37.73
2023-05-22T01:15:16.102Z,37.70
2023-05-22T01:15:46.128Z,37.67
2023-05-22T01:16:16.201Z,37.70
2023-05-22T01:16:46.325Z,37.72
2023-05-22T01:17:16.294Z,37.75
2023-05-22T01:17:46.432Z,37.70
2023-05-22T01:18:16.408Z,37.70
2023-05-22T01:18:46.460Z,37.76
2023-05-22T01:19:16.580Z,37.72
2023-05-22T01:19:46.584Z,37.75
2023-05-22T01:20:16.690Z,37.78
2023-05-22T01:20:48.678Z,37.73
2023-05-22T01:21:16.865Z,37.73
2023-05-22T01:21:46.980Z,37.73
2023-05-22T01:22:17.095Z,37.72
2023-05-22T01:22:47.205Z,37.67
2023-05-22T01:23:17.307Z,37.72
2023-05-22T01:23:47.460Z,37.73
2023-05-22T01:24:17.431Z,37.73
2023-05-22T01:24:47.545Z,37.72
2023-05-22T01:25:17.664Z,37.69
2023-05-22T01:25:47.774Z,37.72
2023-05-22T01:26:17.889Z,37.74
2023-05-22T01:26:48.004Z,37.70
2023-05-22T01:27:18.003Z,37.70
2023-05-22T01:28:18.100Z,37.70
2023-05-22T01:28:48.135Z,37.76
2023-05-22T01:29:18.163Z,37.72
2023-05-22T01:29:48.192Z,37.70
2023-05-22T01:30:18.211Z,37.69
2023-05-22T01:30:48.230Z,37.73
2023-05-22T01:31:18.264Z,37.73
2023-05-22T01:31:48.283Z,37.74
2023-05-22T01:32:18.312Z,37.75
2023-05-22T01:32:48.457Z,37.72
2023-05-22T01:33:18.551Z,37.70
2023-05-22T01:33:48.708Z,37.72
2023-05-22T01:34:18.570Z,37.69
2023-05-22T01:34:48.602Z,37.71
2023-05-22T01:35:18.623Z,37.76
2023-05-22T01:35:48.646Z,37.69
2023-05-22T01:36:18.675Z,37.69
2023-05-22T01:36:48.719Z,37.67
2023-05-22T01:37:18.750Z,37.67
2023-05-22T01:37:48.787Z,37.70
2023-05-22T01:38:18.810Z,37.70
2023-05-22T01:38:48.844Z,37.71
2023-05-22T01:39:18.864Z,37.67
2023-05-22T01:39:48.931Z,37.71
2023-05-22T01:40:18.924Z,37.66
2023-05-22T01:40:48.952Z,37.61
2023-05-22T01:41:18.974Z,37.71
2023-05-22T01:41:49.004Z,37.71
2023-05-22T01:42:19.042Z,37.76
2023-05-22T01:42:49.074Z,37.73
2023-05-22T01:43:19.104Z,37.74
2023-05-22T01:43:49.124Z,37.70
2023-05-22T01:44:19.153Z,37.73
2023-05-22T01:44:49.190Z,37.70
2023-05-22T01:45:19.212Z,37.71
2023-05-22T01:45:49.299Z,37.73
2023-05-22T01:46:19.378Z,37.72
2023-05-22T01:46:49.409Z,37.70
2023-05-22T01:47:19.465Z,37.71
2023-05-22T01:47:49.511Z,37.66
2023-05-22T01:48:19.576Z,37.74
2023-05-22T01:48:49.574Z,37.74
2023-05-22T01:49:19.597Z,37.70
2023-05-22T01:49:49.618Z,37.73
2023-05-22T01:50:19.649Z,37.76
2023-05-22T01:50:49.684Z,37.72
2023-05-22T01:51:19.709Z,37.70
2023-05-22T01:51:49.736Z,37.71
2023-05-22T01:52:19.759Z,37.71
2023-05-22T01:52:49.814Z,37.73
2023-05-22T01:53:19.834Z,37.67
2023-05-22T01:53:49.862Z,37.66
2023-05-22T01:54:19.884Z,37.73
2023-05-22T01:54:49.907Z,37.74
2023-05-22T01:55:19.932Z,37.76
2023-05-22T01:55:49.962Z,37.70
2023-05-22T01:56:20.001Z,37.70
2023-05-22T01:56:50.035Z,37.70
2023-05-22T01:57:20.077Z,37.73
2023-05-22T01:57:50.084Z,37.71
2023-05-22T01:58:20.114Z,37.71
2023-05-22T01:58:50.142Z,37.73
2023-05-22T01:59:20.176Z,37.69
2023-05-22T01:59:50.205Z,37.70
2023-05-22T02:00:20.223Z,37.73
2023-05-22T02:00:50.576Z,37.71
2023-05-22T02:01:20.323Z,37.74
2023-05-22T02:01:50.408Z,37.77
2023-05-22T02:02:20.475Z,37.70
2023-05-22T02:02:50.592Z,37.74
2023-05-22T02:03:20.796Z,37.76
2023-05-22T02:03:50.675Z,37.70
2023-05-22T02:04:20.676Z,37.76
2023-05-22T02:04:50.692Z,37.73
2023-05-22T02:05:20.736Z,37.67
2023-05-22T02:05:50.755Z,37.67
2023-05-22T02:06:20.781Z,37.71
2023-05-22T02:06:50.814Z,37.79
2023-05-22T02:07:20.842Z,37.71
2023-05-22T02:07:50.889Z,37.73
2023-05-22T02:08:20.896Z,37.70
2023-05-22T02:08:50.911Z,37.71
2023-05-22T02:09:20.936Z,37.76
2023-05-22T02:09:50.962Z,37.80
2023-05-22T02:10:21.016Z,37.76
2023-05-22T02:10:51.022Z,37.76
2023-05-22T02:11:21.049Z,37.79
2023-05-22T02:11:51.076Z,37.80
2023-05-22T02:12:21.123Z,37.83
2023-05-22T02:12:51.130Z,37.83
2023-05-22T02:13:21.150Z,37.86
2023-05-22T02:13:51.179Z,37.82
2023-05-22T02:14:21.201Z,37.89
2023-05-22T02:14:51.261Z,37.92
2023-05-22T02:15:21.291Z,37.89
2023-05-22T02:15:51.377Z,37.92
2023-05-22T02:16:21.530Z,37.86
2023-05-22T02:16:51.500Z,37.86
2023-05-22T02:17:21.524Z,37.83
2023-05-22T02:17:51.569Z,37.83
2023-05-22T02:18:21.570Z,37.83
2023-05-22T02:18:51.706Z,37.85
2023-05-22T02:19:21.910Z,37.83
2023-05-22T02:19:51.797Z,37.87
2023-05-22T02:20:51.861Z,37.86
2023-05-22T02:21:21.964Z,37.87
2023-05-22T02:21:52.076Z,37.88
2023-05-22T02:22:22.202Z,37.86
2023-05-22T02:22:52.198Z,37.85
2023-05-22T02:23:22.313Z,37.85
2023-05-22T02:23:52.426Z,37.88
2023-05-22T02:24:22.550Z,37.91
2023-05-22T02:24:52.543Z,37.92
2023-05-22T02:25:22.650Z,37.85
2023-05-22T02:25:52.770Z,37.87
2023-05-22T02:26:22.886Z,37.91
2023-05-22T02:26:52.953Z,37.89
2023-05-22T02:27:23.053Z,37.86
2023-05-22T02:27:53.168Z,37.91
2023-05-22T02:28:23.184Z,37.86
2023-05-22T02:28:53.215Z,37.86
2023-05-22T02:29:23.253Z,37.83
2023-05-22T02:29:53.282Z,37.83
2023-05-22T02:30:23.303Z,37.88
2023-05-22T02:30:53.444Z,37.92
2023-05-22T02:31:23.441Z,37.91
2023-05-22T02:31:53.462Z,37.88
2023-05-22T02:32:23.539Z,37.85
2023-05-22T02:32:53.628Z,37.83
2023-05-22T02:33:23.674Z,37.85
2023-05-22T02:33:53.735Z,37.83
2023-05-22T02:34:23.749Z,37.86
2023-05-22T02:34:54.834Z,37.84
2023-05-22T02:35:23.833Z,37.88
2023-05-22T02:35:53.871Z,37.88
2023-05-22T02:36:23.881Z,37.88
2023-05-22T02:36:53.901Z,37.85
2023-05-22T02:37:23.942Z,37.82
2023-05-22T02:37:53.956Z,37.84
2023-05-22T02:38:23.999Z,37.85
2023-05-22T02:38:54.015Z,37.91
2023-05-22T02:39:24.044Z,37.88
2023-05-22T02:39:54.066Z,37.85
2023-05-22T02:40:24.094Z,37.80
2023-05-22T02:40:54.122Z,37.85
2023-05-22T02:41:24.142Z,37.86
2023-05-22T02:41:54.169Z,37.84
2023-05-22T02:42:24.206Z,37.85
2023-05-22T02:42:54.236Z,37.80
2023-05-22T02:43:24.273Z,37.84
2023-05-22T02:43:54.305Z,37.85
2023-05-22T02:44:24.325Z,37.85
2023-05-22T02:44:54.346Z,37.79
2023-05-22T02:45:24.372Z,37.83
2023-05-22T02:45:54.409Z,37.80
2023-05-22T02:46:24.450Z,37.77
2023-05-22T02:46:54.610Z,37.76
2023-05-22T02:47:24.567Z,37.79
2023-05-22T02:47:54.636Z,37.74
2023-05-22T02:48:24.656Z,37.73
2023-05-22T02:48:54.672Z,37.76
2023-05-22T02:49:24.700Z,37.77
2023-05-22T02:49:54.733Z,37.74
2023-05-22T02:50:24.782Z,37.73
2023-05-22T02:50:54.776Z,37.69
2023-05-22T02:51:24.808Z,37.72
2023-05-22T02:51:54.827Z,37.70
2023-05-22T02:52:24.872Z,37.74
2023-05-22T02:52:54.894Z,37.73
2023-05-22T02:53:24.923Z,37.71
2023-05-22T02:53:54.945Z,37.73
2023-05-22T02:54:24.960Z,37.70
2023-05-22T02:54:54.988Z,37.69
2023-05-22T02:55:25.022Z,37.67
2023-05-22T02:55:55.036Z,37.74
2023-05-22T02:56:25.064Z,37.67
2023-05-22T02:56:55.095Z,37.70
2023-05-22T02:57:25.134Z,37.70
2023-05-22T02:57:55.171Z,37.65
2023-05-22T02:58:25.212Z,37.76
2023-05-22T02:58:55.221Z,37.74
2023-05-22T02:59:25.252Z,37.77
2023-05-22T02:59:55.278Z,37.79
2023-05-22T03:00:25.314Z,37.73
2023-05-22T03:00:55.328Z,37.74
2023-05-22T03:01:25.392Z,37.68
2023-05-22T03:01:55.466Z,37.71
2023-05-22T03:02:25.621Z,37.71
2023-05-22T03:02:55.535Z,37.70
2023-05-22T03:03:55.837Z,37.73
2023-05-22T03:04:25.711Z,37.73
2023-05-22T03:04:55.718Z,37.71
2023-05-22T03:05:25.764Z,37.71
2023-05-22T03:05:55.793Z,37.73
2023-05-22T03:06:25.821Z,37.74
2023-05-22T03:06:55.861Z,37.77
2023-05-22T03:07:25.894Z,37.70
2023-05-22T03:07:55.919Z,37.77
2023-05-22T03:08:25.938Z,37.73
2023-05-22T03:08:55.968Z,37.70
2023-05-22T03:09:25.990Z,37.73
2023-05-22T03:09:56.016Z,37.77
2023-05-22T03:10:26.040Z,37.74
2023-05-22T03:10:56.077Z,37.74
2023-05-22T03:11:26.112Z,37.73
2023-05-22T03:11:56.136Z,37.74
2023-05-22T03:12:26.162Z,37.76
2023-05-22T03:12:56.204Z,37.74
2023-05-22T03:13:26.216Z,37.73
2023-05-22T03:13:56.216Z,37.71
2023-05-22T03:14:26.242Z,37.78
2023-05-22T03:14:56.274Z,37.75
2023-05-22T03:15:26.301Z,37.77
2023-05-22T03:15:56.425Z,37.76
2023-05-22T03:16:26.437Z,37.68
2023-05-22T03:16:56.377Z,37.71
2023-05-22T03:17:26.440Z,37.74
2023-05-22T03:17:56.533Z,37.75
2023-05-22T03:18:27.460Z,37.77
2023-05-22T03:18:56.677Z,37.80
2023-05-22T03:19:27.159Z,37.93
2023-05-22T03:19:56.896Z,37.86
2023-05-22T03:20:27.029Z,37.89
2023-05-22T03:20:57.020Z,37.84
2023-05-22T03:21:27.215Z,37.84
2023-05-22T03:21:57.169Z,37.87
2023-05-22T03:22:27.203Z,38.13
2023-05-22T03:22:57.170Z,38.15
2023-05-22T03:23:27.294Z,38.10
2023-05-22T03:23:57.305Z,38.06
2023-05-22T03:24:27.418Z,38.15
2023-05-22T03:24:57.701Z,38.16
2023-05-22T03:25:27.580Z,38.07
2023-05-22T03:25:57.568Z,37.99
2023-05-22T03:26:27.692Z,38.12
2023-05-22T03:26:57.788Z,38.41
2023-05-22T03:27:27.903Z,38.29
2023-05-22T03:27:58.024Z,38.22
2023-05-22T03:28:28.034Z,38.47
2023-05-22T03:28:58.118Z,38.58
2023-05-22T03:29:28.136Z,38.57
2023-05-22T03:29:58.171Z,38.46
2023-05-22T03:30:28.186Z,38.56
2023-05-22T03:30:58.208Z,38.53
2023-05-22T03:31:28.239Z,38.60
2023-05-22T03:31:58.263Z,38.36
2023-05-22T03:32:28.328Z,38.36
2023-05-22T03:32:58.377Z,38.34
2023-05-22T03:33:28.429Z,38.40
2023-05-22T03:33:58.538Z,38.43
2023-05-22T03:34:28.552Z,38.39
2023-05-22T03:34:58.591Z,38.31
2023-05-22T03:35:28.605Z,38.27
2023-05-22T03:35:58.631Z,38.23
2023-05-22T03:36:29.937Z,38.27
2023-05-22T03:36:58.721Z,38.30
2023-05-22T03:37:28.737Z,38.30
2023-05-22T03:37:58.759Z,38.21
2023-05-22T03:38:28.793Z,38.29
2023-05-22T03:38:58.820Z,38.33
2023-05-22T03:39:28.841Z,38.30
2023-05-22T03:39:58.874Z,38.35
2023-05-22T03:40:28.887Z,38.20
2023-05-22T03:40:58.922Z,38.17
2023-05-22T03:41:28.945Z,38.24
2023-05-22T03:41:58.971Z,38.26
2023-05-22T03:42:28.993Z,38.16
2023-05-22T03:42:59.039Z,38.26
2023-05-22T03:43:29.112Z,38.16
2023-05-22T03:43:59.175Z,38.26
2023-05-22T03:44:29.204Z,38.26
2023-05-22T03:44:59.234Z,38.10
2023-05-22T03:45:29.292Z,38.14
2023-05-22T03:45:59.363Z,38.14
2023-05-22T03:46:29.695Z,38.09
2023-05-22T03:46:59.415Z,38.10
2023-05-22T03:47:29.467Z,38.14
2023-05-22T03:47:59.522Z,38.13
2023-05-22T03:48:29.561Z,38.16
2023-05-22T03:48:59.575Z,38.19
2023-05-22T03:49:29.598Z,38.09
2023-05-22T03:49:59.629Z,38.14
2023-05-22T03:50:29.652Z,38.23
2023-05-22T03:50:59.675Z,38.24
2023-05-22T03:51:29.698Z,38.22
2023-05-22T03:51:59.724Z,38.22
2023-05-22T03:52:30.020Z,38.16
2023-05-22T03:52:59.761Z,38.21
2023-05-22T03:53:59.885Z,38.14
2023-05-22T03:54:29.918Z,38.12
2023-05-22T03:54:59.953Z,38.20
2023-05-22T03:55:29.972Z,38.18
2023-05-22T03:56:00.000Z,38.29
2023-05-22T03:56:30.031Z,38.24
2023-05-22T03:57:00.054Z,38.26
2023-05-22T03:57:30.079Z,38.17
2023-05-22T03:58:00.127Z,38.42
2023-05-22T03:58:30.124Z,38.38
2023-05-22T03:59:00.146Z,38.40
2023-05-22T03:59:30.185Z,38.54
2023-05-22T04:00:00.199Z,38.46
2023-05-22T04:00:30.232Z,38.54
2023-05-22T04:01:00.255Z,38.58
2023-05-22T04:01:30.295Z,38.70
2023-05-22T04:02:00.360Z,38.55
2023-05-22T04:02:30.504Z,38.53
2023-05-22T04:03:00.540Z,38.48
2023-05-22T04:03:30.608Z,38.51
2023-05-22T04:04:00.664Z,38.56
2023-05-22T04:04:30.660Z,38.56
2023-05-22T04:05:00.745Z,38.47
2023-05-22T04:05:30.848Z,38.50
2023-05-22T04:06:00.784Z,38.50
2023-05-22T04:06:30.821Z,38.49
2023-05-22T04:07:00.854Z,38.51
2023-05-22T04:07:30.875Z,38.50
2023-05-22T04:08:01.070Z,38.49
2023-05-22T04:08:30.918Z,38.69
2023-05-22T04:09:30.943Z,38.70
2023-05-22T04:10:00.959Z,38.66
2023-05-22T04:10:30.986Z,38.72
2023-05-22T04:11:01.034Z,38.64
2023-05-22T04:11:31.070Z,38.61
2023-05-22T04:12:01.105Z,38.78
2023-05-22T04:12:31.110Z,38.77
2023-05-22T04:13:01.136Z,38.80
2023-05-22T04:13:31.165Z,38.87
2023-05-22T04:14:01.184Z,38.80
2023-05-22T04:14:31.205Z,38.92
2023-05-22T04:15:01.226Z,38.91
2023-05-22T04:15:31.350Z,38.87
2023-05-22T04:16:01.403Z,38.95
2023-05-22T04:16:31.469Z,38.82
2023-05-22T04:17:01.417Z,39.21
2023-05-22T04:17:31.482Z,39.45
2023-05-22T04:18:01.570Z,39.43
2023-05-22T04:18:31.599Z,39.40
2023-05-22T04:19:01.770Z,39.37
2023-05-22T04:19:31.820Z,39.34
2023-05-22T04:20:01.834Z,39.38
2023-05-22T04:20:31.936Z,39.46
2023-05-22T04:21:01.926Z,39.66
2023-05-22T04:21:31.977Z,39.55
2023-05-22T04:22:02.101Z,39.55
2023-05-22T04:22:32.202Z,39.46
2023-05-22T04:23:02.317Z,39.52
2023-05-22T04:23:32.458Z,39.35
2023-05-22T04:24:02.539Z,39.35
2023-05-22T04:24:32.650Z,39.26
2023-05-22T04:25:02.779Z,39.25
2023-05-22T04:25:32.763Z,39.26
2023-05-22T04:26:02.873Z,39.31
2023-05-22T04:26:32.985Z,39.22
2023-05-22T04:27:03.112Z,39.03
2023-05-22T04:27:33.218Z,39.11
2023-05-22T04:28:03.331Z,39.21
2023-05-22T04:28:33.352Z,39.27
2023-05-22T04:29:03.375Z,39.17
2023-05-22T04:29:33.417Z,39.15
2023-05-22T04:30:03.468Z,39.08
2023-05-22T04:30:33.478Z,39.07
2023-05-22T04:31:03.519Z,39.02
2023-05-22T04:31:33.578Z,38.91
2023-05-22T04:32:03.634Z,38.88
2023-05-22T04:32:33.680Z,38.91
2023-05-22T04:33:03.750Z,38.86
2023-05-22T04:33:33.785Z,38.98
2023-05-22T04:34:03.828Z,38.97
2023-05-22T04:34:33.864Z,38.85
2023-05-22T04:35:03.902Z,38.87
2023-05-22T04:35:33.920Z,38.82
2023-05-22T04:36:03.950Z,38.85
2023-05-22T04:36:33.977Z,38.87
2023-05-22T04:37:03.996Z,38.91
2023-05-22T04:37:34.039Z,38.87
2023-05-22T04:38:04.058Z,38.84
2023-05-22T04:38:34.073Z,38.82
2023-05-22T04:39:04.200Z,39.14
2023-05-22T04:39:34.217Z,39.12
2023-05-22T04:40:04.240Z,39.05
2023-05-22T04:40:34.306Z,39.11
2023-05-22T04:41:04.364Z,39.25
2023-05-22T04:41:34.457Z,39.25
2023-05-22T04:42:04.463Z,39.34
2023-05-22T04:42:34.509Z,39.31
2023-05-22T04:43:04.531Z,39.42
2023-05-22T04:43:34.562Z,39.34
2023-05-22T04:44:04.595Z,39.35
2023-05-22T04:44:34.627Z,39.43
2023-05-22T04:45:04.643Z,39.40
2023-05-22T04:45:34.662Z,39.36
2023-05-22T04:46:04.707Z,39.36
2023-05-22T04:46:34.832Z,39.32
2023-05-22T04:47:07.447Z,39.45
2023-05-22T04:47:34.903Z,39.47
2023-05-22T04:48:04.998Z,39.39
2023-05-22T04:48:35.036Z,39.33
2023-05-22T04:49:05.065Z,39.51
2023-05-22T04:49:35.082Z,39.28
2023-05-22T04:50:05.125Z,39.35
2023-05-22T04:50:35.159Z,39.27
2023-05-22T04:51:05.188Z,39.30
2023-05-22T04:51:35.303Z,39.30
2023-05-22T04:52:05.319Z,39.65
2023-05-22T04:52:35.347Z,39.78
2023-05-22T04:53:05.376Z,39.74
2023-05-22T04:53:35.412Z,39.96
2023-05-22T04:54:05.445Z,39.96
2023-05-22T04:54:35.542Z,40.22
2023-05-22T04:55:06.121Z,40.19
2023-05-22T04:55:35.667Z,40.16
2023-05-22T04:56:05.676Z,40.54
2023-05-22T04:56:37.211Z,40.16
2023-05-22T04:57:05.754Z,40.08
2023-05-22T04:57:35.781Z,40.11
2023-05-22T04:58:05.875Z,40.03
2023-05-22T04:58:35.894Z,40.31
2023-05-22T04:59:05.933Z,40.19
2023-05-22T04:59:35.982Z,39.96
2023-05-22T05:00:06.023Z,40.01
2023-05-22T05:00:36.106Z,40.02
2023-05-22T05:01:06.271Z,40.34
2023-05-22T05:01:36.219Z,40.19
2023-05-22T05:02:06.276Z,40.19
2023-05-22T05:02:36.331Z,40.09
2023-05-22T05:03:06.455Z,40.45
2023-05-22T05:03:36.559Z,40.53
2023-05-22T05:04:06.753Z,40.41
2023-05-22T05:04:36.556Z,40.34
2023-05-22T05:05:06.608Z,40.44
2023-05-22T05:05:36.665Z,40.33
2023-05-22T05:06:06.692Z,40.25
2023-05-22T05:06:36.713Z,40.40
2023-05-22T05:07:06.998Z,40.17
2023-05-22T05:07:36.789Z,40.15
2023-05-22T05:08:36.796Z,40.05
2023-05-22T05:09:06.836Z,40.14
2023-05-22T05:09:36.861Z,40.02
2023-05-22T05:10:07.343Z,40.12
2023-05-22T05:10:36.992Z,40.05
2023-05-22T05:11:37.080Z,40.14
2023-05-22T05:12:07.120Z,40.08
2023-05-22T05:12:37.137Z,40.17
2023-05-22T05:13:07.160Z,40.30
2023-05-22T05:13:37.181Z,39.93
2023-05-22T05:14:07.207Z,40.02
2023-05-22T05:14:37.229Z,40.18
2023-05-22T05:15:07.261Z,40.21
2023-05-22T05:15:37.279Z,40.37
2023-05-22T05:16:07.463Z,40.31
2023-05-22T05:16:37.380Z,40.26
2023-05-22T05:17:07.433Z,39.83
2023-05-22T05:17:37.475Z,40.18
2023-05-22T05:18:07.549Z,40.21
2023-05-22T05:18:37.571Z,40.46
2023-05-22T05:19:07.740Z,40.34
2023-05-22T05:19:37.778Z,40.15
2023-05-22T05:20:07.776Z,40.33
2023-05-22T05:20:38.029Z,40.37
2023-05-22T05:21:07.946Z,40.53
2023-05-22T05:21:37.944Z,40.45
2023-05-22T05:22:07.950Z,40.20
2023-05-22T05:22:37.957Z,40.15
2023-05-22T05:23:08.069Z,40.29
2023-05-22T05:23:38.184Z,40.35
2023-05-22T05:24:08.296Z,40.52
2023-05-22T05:24:38.312Z,40.29
2023-05-22T05:26:17.533Z,40.41
2023-05-22T05:26:47.481Z,40.41
2023-05-22T05:27:17.548Z,40.32
2023-05-22T05:27:47.623Z,40.31
2023-05-22T05:28:17.698Z,40.28
2023-05-22T05:28:47.779Z,40.35
2023-05-22T05:29:17.860Z,40.44
2023-05-22T05:29:47.932Z,40.44
2023-05-22T05:30:20.332Z,40.37
2023-05-22T05:30:48.124Z,40.36
2023-05-22T05:31:18.256Z,40.25
2023-05-22T05:31:48.307Z,40.49
2023-05-22T05:32:18.368Z,40.56
2023-05-22T05:32:48.405Z,40.61
2023-05-22T05:33:18.476Z,40.77
2023-05-22T05:33:48.551Z,40.73
2023-05-22T05:34:18.665Z,41.02
2023-05-22T05:34:48.753Z,40.95
2023-05-22T05:35:18.881Z,41.28
2023-05-22T05:35:48.842Z,41.19
2023-05-22T05:36:18.939Z,41.28
2023-05-22T05:36:49.052Z,41.15
2023-05-22T05:37:19.161Z,40.98
2023-05-22T05:37:49.270Z,41.07
2023-05-22T05:38:19.394Z,41.06
2023-05-22T05:38:49.515Z,41.09
2023-05-22T05:39:19.642Z,41.04
2023-05-22T05:39:49.646Z,41.07
2023-05-22T05:40:19.750Z,40.93
2023-05-22T05:40:49.932Z,40.99
2023-05-22T05:41:19.909Z,41.39
2023-05-22T05:41:50.039Z,41.07
2023-05-22T05:42:20.138Z,41.13
2023-05-22T05:42:50.260Z,41.37
2023-05-22T05:43:20.278Z,41.35
2023-05-22T05:43:50.269Z,41.37
2023-05-22T05:44:20.289Z,41.49
2023-05-22T05:44:50.286Z,41.37
2023-05-22T05:45:20.399Z,41.38
2023-05-22T05:45:50.408Z,41.57
2023-05-22T05:46:20.532Z,41.62
2023-05-22T05:46:50.578Z,41.58
2023-05-22T05:47:20.727Z,41.52
2023-05-22T05:47:50.725Z,41.58
2023-05-22T05:48:20.702Z,41.52
2023-05-22T05:48:50.719Z,41.37
2023-05-22T05:49:20.702Z,41.50
2023-05-22T05:50:20.831Z,41.46
2023-05-22T05:50:50.825Z,41.49
2023-05-22T05:51:50.866Z,41.46
2023-05-22T05:52:20.976Z,41.71
2023-05-22T05:52:51.038Z,41.48
2023-05-22T05:53:21.152Z,41.44
2023-05-22T05:53:51.146Z,41.45
2023-05-22T05:54:21.254Z,41.42
2023-05-22T05:54:51.372Z,41.45
2023-05-22T05:55:21.492Z,41.45
2023-05-22T05:55:51.602Z,41.41
2023-05-22T05:56:21.720Z,41.49
2023-05-22T05:56:51.821Z,41.64
2023-05-22T05:57:22.009Z,41.64
2023-05-22T05:57:52.021Z,41.59
2023-05-22T05:58:22.031Z,41.55
2023-05-22T05:59:22.081Z,41.82
2023-05-22T05:59:52.193Z,41.93
2023-05-22T06:00:22.209Z,41.93
2023-05-22T06:00:52.319Z,41.91
2023-05-22T06:01:22.429Z,41.83
2023-05-22T06:01:52.541Z,41.74
2023-05-22T06:02:22.734Z,41.82
2023-05-22T06:02:52.846Z,41.74
2023-05-22T06:03:22.991Z,41.67
2023-05-22T06:03:53.219Z,41.70
2023-05-22T06:04:22.879Z,41.63
2023-05-22T06:04:53.024Z,41.68
2023-05-22T06:05:23.178Z,41.54
2023-05-22T06:05:53.062Z,41.59
2023-05-22T06:06:23.085Z,41.60
2023-05-22T06:06:53.240Z,41.76
2023-05-22T06:07:23.238Z,41.94
2023-05-22T06:07:53.348Z,41.94
2023-05-22T06:08:23.480Z,41.77
2023-05-22T06:08:53.463Z,41.83
2023-05-22T06:09:23.574Z,41.88
2023-05-22T06:09:53.690Z,41.80
2023-05-22T06:10:23.684Z,41.77
2023-05-22T06:10:53.811Z,41.66
2023-05-22T06:11:23.908Z,41.84
2023-05-22T06:11:54.027Z,41.77
2023-05-22T06:12:24.160Z,41.78
2023-05-22T06:12:54.177Z,41.70
2023-05-22T06:13:54.233Z,41.65
2023-05-22T06:14:24.352Z,41.59
2023-05-22T06:14:54.343Z,41.74
2023-05-22T06:15:24.460Z,41.59
2023-05-22T06:15:54.602Z,41.58
2023-05-22T06:16:24.758Z,41.51
2023-05-22T06:16:54.682Z,41.55
2023-05-22T06:17:24.739Z,41.55
2023-05-22T06:17:54.784Z,41.63
2023-05-22T06:18:24.773Z,41.57
2023-05-22T06:18:54.926Z,41.55
2023-05-22T06:19:25.012Z,41.51
2023-05-22T06:19:54.993Z,41.44
2023-05-22T06:20:25.122Z,41.49
2023-05-22T06:20:55.111Z,41.70
2023-05-22T06:21:25.246Z,41.73
2023-05-22T06:21:55.230Z,41.71
2023-05-22T06:22:25.356Z,41.73
2023-05-22T06:22:55.465Z,41.75
2023-05-22T06:23:25.579Z,41.66
2023-05-22T06:23:55.582Z,41.65
2023-05-22T06:24:25.589Z,41.69
2023-05-22T06:25:25.657Z,41.71
2023-05-22T06:25:55.767Z,41.65
2023-05-22T06:26:25.845Z,41.67
2023-05-22T06:26:55.907Z,41.67
2023-05-22T06:27:26.001Z,41.58
2023-05-22T06:27:56.135Z,41.55
2023-05-22T06:28:26.175Z,41.48
2023-05-22T06:28:56.252Z,41.61
2023-05-22T06:29:26.382Z,41.54
2023-05-22T06:29:56.671Z,41.48
2023-05-22T06:30:38.882Z,41.57
2023-05-22T06:30:56.640Z,41.47
2023-05-22T06:31:26.729Z,41.41
2023-05-22T06:31:56.816Z,41.47
2023-05-22T06:32:26.933Z,41.44
2023-05-22T06:32:56.977Z,41.44
2023-05-22T06:33:26.987Z,41.44
2023-05-22T06:33:57.032Z,41.44
2023-05-22T06:34:27.186Z,41.39
2023-05-22T06:35:01.530Z,41.45
2023-05-22T06:35:27.080Z,41.46